sensor_id;sensor_type;location;lat;lon;timestamp;pressure;altitude;pressure_sealevel;temperature;humidity
18819;BME280;9537;45.594;9.294;2022-12-15T00:01:03;98643.03;;;0.57;82.04
18819;BME280;9537;45.594;9.294;2022-12-15T00:02:23;98635.22;;;0.57;82.31
18819;BME280;9537;45.594;9.294;2022-12-15T00:03:43;98629.22;;;0.56;81.93
18819;BME280;9537;45.594;9.294;2022-12-15T00:05:05;98639.47;;;0.58;82.80
18819;BME280;9537;45.594;9.294;2022-12-15T00:06:24;98639.47;;;0.58;82.54
18819;BME280;9537;45.594;9.294;2022-12-15T00:07:44;98641.38;;;0.56;82.25
18819;BME280;9537;45.594;9.294;2022-12-15T00:09:03;98651.22;;;0.52;82.13
18819;BME280;9537;45.594;9.294;2022-12-15T00:10:23;98654.22;;;0.48;81.79
18819;BME280;9537;45.594;9.294;2022-12-15T00:11:42;98650.94;;;0.45;81.59
18819;BME280;9537;45.594;9.294;2022-12-15T00:13:02;98652.31;;;0.50;81.76
18819;BME280;9537;45.594;9.294;2022-12-15T00:14:21;98640.53;;;0.45;82.24
18819;BME280;9537;45.594;9.294;2022-12-15T00:15:40;98634.41;;;0.47;81.64
18819;BME280;9537;45.594;9.294;2022-12-15T00:17:00;98629.75;;;0.50;82.31
18819;BME280;9537;45.594;9.294;2022-12-15T00:18:19;98616.88;;;0.49;81.73
18819;BME280;9537;45.594;9.294;2022-12-15T00:19:38;98621.25;;;0.48;82.18
18819;BME280;9537;45.594;9.294;2022-12-15T00:20:59;98615.53;;;0.54;81.40
18819;BME280;9537;45.594;9.294;2022-12-15T00:22:18;98608.56;;;0.55;81.86
18819;BME280;9537;45.594;9.294;2022-12-15T00:23:38;98608.56;;;0.55;81.52
18819;BME280;9537;45.594;9.294;2022-12-15T00:24:57;98614.59;;;0.55;82.24
18819;BME280;9537;45.594;9.294;2022-12-15T00:26:17;98614.84;;;0.52;81.44
18819;BME280;9537;45.594;9.294;2022-12-15T00:27:36;98619.34;;;0.50;82.19
18819;BME280;9537;45.594;9.294;2022-12-15T00:28:56;98619.09;;;0.43;81.44
18819;BME280;9537;45.594;9.294;2022-12-15T00:30:15;98619.34;;;0.40;81.10
18819;BME280;9537;45.594;9.294;2022-12-15T00:31:34;98623.59;;;0.41;81.73
18819;BME280;9537;45.594;9.294;2022-12-15T00:32:54;98613.47;;;0.38;82.11
18819;BME280;9537;45.594;9.294;2022-12-15T00:34:13;98606.38;;;0.40;82.14
18819;BME280;9537;45.594;9.294;2022-12-15T00:35:32;98615.09;;;0.39;81.95
18819;BME280;9537;45.594;9.294;2022-12-15T00:36:53;98614.16;;;0.40;81.36
18819;BME280;9537;45.594;9.294;2022-12-15T00:38:13;98602.09;;;0.39;81.61
18819;BME280;9537;45.594;9.294;2022-12-15T00:39:33;98612.38;;;0.41;81.85
18819;BME280;9537;45.594;9.294;2022-12-15T00:40:35;98603.34;;;0.45;81.23
18819;BME280;9537;45.594;9.294;2022-12-15T00:41:36;98606.63;;;0.47;81.72
18819;BME280;9537;45.594;9.294;2022-12-15T00:42:38;98606.75;;;0.45;81.34
18819;BME280;9537;45.594;9.294;2022-12-15T00:43:39;98612.91;;;0.44;80.78
18819;BME280;9537;45.594;9.294;2022-12-15T00:44:42;98605.53;;;0.40;80.77
18819;BME280;9537;45.594;9.294;2022-12-15T00:45:43;98612.66;;;0.38;81.25
18819;BME280;9537;45.594;9.294;2022-12-15T00:47:03;98621.78;;;0.32;81.01
18819;BME280;9537;45.594;9.294;2022-12-15T00:48:06;98622.88;;;0.30;81.07
18819;BME280;9537;45.594;9.294;2022-12-15T00:49:07;98613.84;;;0.24;81.88
18819;BME280;9537;45.594;9.294;2022-12-15T00:50:28;98614.91;;;0.21;81.71
18819;BME280;9537;45.594;9.294;2022-12-15T00:51:46;98608.75;;;0.22;81.90
18819;BME280;9537;45.594;9.294;2022-12-15T00:53:08;98607.41;;;0.18;81.46
18819;BME280;9537;45.594;9.294;2022-12-15T00:54:27;98615.63;;;0.24;81.84
18819;BME280;9537;45.594;9.294;2022-12-15T00:55:47;98616.28;;;0.26;82.05
18819;BME280;9537;45.594;9.294;2022-12-15T00:57:06;98612.47;;;0.30;81.22
18819;BME280;9537;45.594;9.294;2022-12-15T00:58:25;98616.97;;;0.28;81.24
18819;BME280;9537;45.594;9.294;2022-12-15T00:59:44;98609.47;;;0.25;81.35
18819;BME280;9537;45.594;9.294;2022-12-15T01:01:08;98610.69;;;0.20;81.31
18819;BME280;9537;45.594;9.294;2022-12-15T01:02:27;98616.16;;;0.17;81.87
18819;BME280;9537;45.594;9.294;2022-12-15T01:03:47;98616.00;;;0.09;81.72
18819;BME280;9537;45.594;9.294;2022-12-15T01:05:06;98617.19;;;0.05;82.07
18819;BME280;9537;45.594;9.294;2022-12-15T01:06:26;98621.56;;;0.05;81.69
18819;BME280;9537;45.594;9.294;2022-12-15T01:07:46;98618.69;;;0.08;81.88
18819;BME280;9537;45.594;9.294;2022-12-15T01:09:08;98627.88;;;0.12;81.68
18819;BME280;9537;45.594;9.294;2022-12-15T01:10:27;98633.34;;;0.09;81.54
18819;BME280;9537;45.594;9.294;2022-12-15T01:11:47;98633.34;;;0.09;81.91
18819;BME280;9537;45.594;9.294;2022-12-15T01:13:06;98634.16;;;0.09;82.25
18819;BME280;9537;45.594;9.294;2022-12-15T01:14:27;98647.81;;;0.11;82.28
18819;BME280;9537;45.594;9.294;2022-12-15T01:15:46;98649.31;;;0.14;81.99
18819;BME280;9537;45.594;9.294;2022-12-15T01:17:06;98646.63;;;0.15;82.56
18819;BME280;9537;45.594;9.294;2022-12-15T01:18:25;98648.25;;;0.16;82.05
18819;BME280;9537;45.594;9.294;2022-12-15T01:19:44;98642.94;;;0.18;82.31
18819;BME280;9537;45.594;9.294;2022-12-15T01:21:05;98647.88;;;0.21;82.52
18819;BME280;9537;45.594;9.294;2022-12-15T01:22:08;98650.19;;;0.24;81.77
18819;BME280;9537;45.594;9.294;2022-12-15T01:23:09;98655.25;;;0.26;81.50
18819;BME280;9537;45.594;9.294;2022-12-15T01:24:13;98661.78;;;0.20;81.57
18819;BME280;9537;45.594;9.294;2022-12-15T01:25:15;98662.19;;;0.15;81.91
18819;BME280;9537;45.594;9.294;2022-12-15T01:26:17;98666.69;;;0.13;82.08
18819;BME280;9537;45.594;9.294;2022-12-15T01:27:19;98668.47;;;0.13;81.71
18819;BME280;9537;45.594;9.294;2022-12-15T01:28:21;98668.59;;;0.11;81.57
18819;BME280;9537;45.594;9.294;2022-12-15T01:29:23;98660.94;;;0.10;81.84
18819;BME280;9537;45.594;9.294;2022-12-15T01:30:25;98658.34;;;0.10;82.65
18819;BME280;9537;45.594;9.294;2022-12-15T01:31:28;98665.16;;;0.11;82.49
18819;BME280;9537;45.594;9.294;2022-12-15T01:32:29;98663.00;;;0.16;82.44
18819;BME280;9537;45.594;9.294;2022-12-15T01:33:31;98668.34;;;0.14;81.67
18819;BME280;9537;45.594;9.294;2022-12-15T01:34:32;98668.22;;;0.16;81.66
18819;BME280;9537;45.594;9.294;2022-12-15T01:35:34;98670.81;;;0.16;81.69
18819;BME280;9537;45.594;9.294;2022-12-15T01:36:35;98668.22;;;0.16;82.24
18819;BME280;9537;45.594;9.294;2022-12-15T01:37:37;98668.22;;;0.16;82.73
18819;BME280;9537;45.594;9.294;2022-12-15T01:38:38;98663.56;;;0.19;82.55
18819;BME280;9537;45.594;9.294;2022-12-15T01:39:41;98661.94;;;0.18;82.19
18819;BME280;9537;45.594;9.294;2022-12-15T01:41:03;98655.09;;;0.17;82.51
18819;BME280;9537;45.594;9.294;2022-12-15T01:42:09;98664.38;;;0.20;82.12
18819;BME280;9537;45.594;9.294;2022-12-15T01:43:14;98662.75;;;0.19;82.24
18819;BME280;9537;45.594;9.294;2022-12-15T01:44:17;98664.91;;;0.14;81.57
18819;BME280;9537;45.594;9.294;2022-12-15T01:45:43;98665.59;;;0.16;82.01
18819;BME280;9537;45.594;9.294;2022-12-15T01:46:47;98661.22;;;0.16;81.54
18819;BME280;9537;45.594;9.294;2022-12-15T01:47:50;98669.97;;;0.15;81.20
18819;BME280;9537;45.594;9.294;2022-12-15T01:48:56;98662.19;;;0.15;81.65
18819;BME280;9537;45.594;9.294;2022-12-15T01:50:00;98663.66;;;0.08;81.03
18819;BME280;9537;45.594;9.294;2022-12-15T01:51:18;98669.09;;;0.05;81.07
18819;BME280;9537;45.594;9.294;2022-12-15T01:52:20;98662.41;;;0.03;80.63
18819;BME280;9537;45.594;9.294;2022-12-15T01:53:22;98663.25;;;0.03;80.83
18819;BME280;9537;45.594;9.294;2022-12-15T01:54:28;98666.09;;;0.00;80.89
18819;BME280;9537;45.594;9.294;2022-12-15T01:55:32;98662.66;;;-0.01;81.24
18819;BME280;9537;45.594;9.294;2022-12-15T01:56:36;98665.00;;;0.03;81.35
18819;BME280;9537;45.594;9.294;2022-12-15T01:57:40;98654.50;;;0.04;81.32
18819;BME280;9537;45.594;9.294;2022-12-15T01:58:44;98654.34;;;0.06;80.49
18819;BME280;9537;45.594;9.294;2022-12-15T01:59:50;98657.91;;;0.05;80.44
18819;BME280;9537;45.594;9.294;2022-12-15T02:00:53;98660.50;;;0.05;80.46
18819;BME280;9537;45.594;9.294;2022-12-15T02:01:54;98669.38;;;0.02;80.58
18819;BME280;9537;45.594;9.294;2022-12-15T02:02:58;98674.72;;;0.01;81.37
18819;BME280;9537;45.594;9.294;2022-12-15T02:04:01;98680.84;;;-0.01;81.56
18819;BME280;9537;45.594;9.294;2022-12-15T02:05:04;98679.47;;;-0.05;82.07
18819;BME280;9537;45.594;9.294;2022-12-15T02:06:07;98674.53;;;-0.08;81.39
18819;BME280;9537;45.594;9.294;2022-12-15T02:07:12;98664.69;;;-0.04;81.39
18819;BME280;9537;45.594;9.294;2022-12-15T02:08:13;98654.59;;;-0.07;81.67
18819;BME280;9537;45.594;9.294;2022-12-15T02:09:16;98643.94;;;-0.04;81.15
18819;BME280;9537;45.594;9.294;2022-12-15T02:10:18;98645.81;;;-0.06;81.33
18819;BME280;9537;45.594;9.294;2022-12-15T02:11:46;98643.81;;;-0.03;81.57
18819;BME280;9537;45.594;9.294;2022-12-15T02:12:58;98653.13;;;0.00;81.98
18819;BME280;9537;45.594;9.294;2022-12-15T02:14:04;98642.75;;;0.00;82.28
18819;BME280;9537;45.594;9.294;2022-12-15T02:15:16;98642.47;;;0.03;81.48
18819;BME280;9537;45.594;9.294;2022-12-15T02:16:26;98646.56;;;0.06;81.61
18819;BME280;9537;45.594;9.294;2022-12-15T02:17:36;98648.03;;;-0.02;80.80
18819;BME280;9537;45.594;9.294;2022-12-15T02:18:46;98640.38;;;-0.03;81.01
18819;BME280;9537;45.594;9.294;2022-12-15T02:21:36;98639.56;;;-0.04;80.57
18819;BME280;9537;45.594;9.294;2022-12-15T02:22:54;98638.63;;;-0.03;79.90
18819;BME280;9537;45.594;9.294;2022-12-15T02:24:32;98646.69;;;-0.06;79.78
18819;BME280;9537;45.594;9.294;2022-12-15T02:25:58;98660.16;;;-0.12;79.43
18819;BME280;9537;45.594;9.294;2022-12-15T02:27:26;98657.81;;;-0.15;80.06
18819;BME280;9537;45.594;9.294;2022-12-15T02:28:42;98655.22;;;-0.15;79.74
18819;BME280;9537;45.594;9.294;2022-12-15T02:30:15;98651.09;;;-0.17;80.40
18819;BME280;9537;45.594;9.294;2022-12-15T02:31:20;98641.13;;;-0.22;80.57
18819;BME280;9537;45.594;9.294;2022-12-15T02:32:47;98649.63;;;-0.20;81.06
18819;BME280;9537;45.594;9.294;2022-12-15T02:33:53;98644.66;;;-0.23;81.25
18819;BME280;9537;45.594;9.294;2022-12-15T02:35:02;98630.34;;;-0.17;81.68
18819;BME280;9537;45.594;9.294;2022-12-15T02:36:14;98635.28;;;-0.14;80.85
18819;BME280;9537;45.594;9.294;2022-12-15T02:37:22;98633.25;;;-0.11;81.68
18819;BME280;9537;45.594;9.294;2022-12-15T02:38:29;98632.31;;;-0.10;81.20
18819;BME280;9537;45.594;9.294;2022-12-15T02:39:32;98628.88;;;-0.10;80.59
18819;BME280;9537;45.594;9.294;2022-12-15T02:40:33;98634.88;;;-0.10;79.82
18819;BME280;9537;45.594;9.294;2022-12-15T02:41:37;98630.94;;;-0.14;79.63
18819;BME280;9537;45.594;9.294;2022-12-15T02:42:43;98631.75;;;-0.13;80.21
18819;BME280;9537;45.594;9.294;2022-12-15T02:43:46;98633.34;;;-0.22;79.91
18819;BME280;9537;45.594;9.294;2022-12-15T02:44:50;98639.72;;;-0.26;80.03
18819;BME280;9537;45.594;9.294;2022-12-15T02:46:06;98635.06;;;-0.32;80.71
18819;BME280;9537;45.594;9.294;2022-12-15T02:47:20;98643.66;;;-0.32;80.01
18819;BME280;9537;45.594;9.294;2022-12-15T02:48:29;98644.88;;;-0.36;80.52
18819;BME280;9537;45.594;9.294;2022-12-15T02:49:41;98652.78;;;-0.37;79.96
18819;BME280;9537;45.594;9.294;2022-12-15T02:51:08;98644.75;;;-0.34;79.69
18819;BME280;9537;45.594;9.294;2022-12-15T02:52:22;98638.31;;;-0.40;79.43
18819;BME280;9537;45.594;9.294;2022-12-15T02:53:39;98646.31;;;-0.43;80.54
18819;BME280;9537;45.594;9.294;2022-12-15T02:54:54;98646.47;;;-0.44;80.58
18819;BME280;9537;45.594;9.294;2022-12-15T02:56:04;98635.47;;;-0.37;79.92
18819;BME280;9537;45.594;9.294;2022-12-15T02:57:13;98636.53;;;-0.39;80.05
18819;BME280;9537;45.594;9.294;2022-12-15T02:58:26;98637.47;;;-0.40;80.20
18819;BME280;9537;45.594;9.294;2022-12-15T02:59:36;98642.25;;;-0.46;80.79
18819;BME280;9537;45.594;9.294;2022-12-15T03:00:41;98648.09;;;-0.43;80.69
18819;BME280;9537;45.594;9.294;2022-12-15T03:01:50;98650.03;;;-0.46;79.99
18819;BME280;9537;45.594;9.294;2022-12-15T03:02:54;98646.97;;;-0.51;79.98
18819;BME280;9537;45.594;9.294;2022-12-15T03:03:57;98656.41;;;-0.50;80.32
18819;BME280;9537;45.594;9.294;2022-12-15T03:05:00;98649.81;;;-0.54;80.20
18819;BME280;9537;45.594;9.294;2022-12-15T03:06:02;98654.19;;;-0.54;80.94
18819;BME280;9537;45.594;9.294;2022-12-15T03:07:08;98658.19;;;-0.50;80.74
18819;BME280;9537;45.594;9.294;2022-12-15T03:08:09;98660.88;;;-0.52;80.89
18819;BME280;9537;45.594;9.294;2022-12-15T03:09:11;98656.41;;;-0.50;81.43
18819;BME280;9537;45.594;9.294;2022-12-15T03:10:13;98660.66;;;-0.49;81.37
18819;BME280;9537;45.594;9.294;2022-12-15T03:11:15;98665.84;;;-0.49;81.55
18819;BME280;9537;45.594;9.294;2022-12-15T03:12:16;98674.28;;;-0.47;81.40
18819;BME280;9537;45.594;9.294;2022-12-15T03:13:18;98674.03;;;-0.43;81.75
18819;BME280;9537;45.594;9.294;2022-12-15T03:14:19;98677.34;;;-0.41;81.97
18819;BME280;9537;45.594;9.294;2022-12-15T03:15:21;98682.41;;;-0.40;82.42
18819;BME280;9537;45.594;9.294;2022-12-15T03:16:22;98685.44;;;-0.35;82.68
18819;BME280;9537;45.594;9.294;2022-12-15T03:17:26;98685.06;;;-0.30;82.73
18819;BME280;9537;45.594;9.294;2022-12-15T03:18:27;98693.28;;;-0.25;83.82
18819;BME280;9537;45.594;9.294;2022-12-15T03:19:29;98688.28;;;-0.17;83.77
18819;BME280;9537;45.594;9.294;2022-12-15T03:20:30;98696.75;;;-0.15;84.34
18819;BME280;9537;45.594;9.294;2022-12-15T03:21:32;98701.56;;;-0.10;84.88
18819;BME280;9537;45.594;9.294;2022-12-15T03:22:33;98696.13;;;-0.07;84.84
18819;BME280;9537;45.594;9.294;2022-12-15T03:23:35;98691.47;;;-0.04;86.18
18819;BME280;9537;45.594;9.294;2022-12-15T03:24:36;98682.63;;;-0.01;86.18
18819;BME280;9537;45.594;9.294;2022-12-15T03:25:38;98677.03;;;0.04;86.32
18819;BME280;9537;45.594;9.294;2022-12-15T03:26:40;98675.97;;;0.06;86.50
18819;BME280;9537;45.594;9.294;2022-12-15T03:27:44;98673.78;;;0.11;87.10
18819;BME280;9537;45.594;9.294;2022-12-15T03:28:46;98680.50;;;0.14;87.74
18819;BME280;9537;45.594;9.294;2022-12-15T03:29:48;98677.78;;;0.15;87.32
18819;BME280;9537;45.594;9.294;2022-12-15T03:30:49;98681.75;;;0.19;87.36
18819;BME280;9537;45.594;9.294;2022-12-15T03:31:51;98683.13;;;0.24;87.22
18819;BME280;9537;45.594;9.294;2022-12-15T03:32:53;98681.09;;;0.27;87.65
18819;BME280;9537;45.594;9.294;2022-12-15T03:33:55;98681.78;;;0.29;88.08
18819;BME280;9537;45.594;9.294;2022-12-15T03:34:56;98686.72;;;0.32;87.63
18819;BME280;9537;45.594;9.294;2022-12-15T03:35:58;98692.75;;;0.33;88.24
18819;BME280;9537;45.594;9.294;2022-12-15T03:37:00;98688.09;;;0.36;87.91
18819;BME280;9537;45.594;9.294;2022-12-15T03:38:02;98689.50;;;0.40;87.92
18819;BME280;9537;45.594;9.294;2022-12-15T03:39:03;98691.38;;;0.38;88.22
18819;BME280;9537;45.594;9.294;2022-12-15T03:40:06;98687.16;;;0.37;87.83
18819;BME280;9537;45.594;9.294;2022-12-15T03:41:07;98692.59;;;0.34;88.01
18819;BME280;9537;45.594;9.294;2022-12-15T03:42:09;98691.78;;;0.34;87.57
18819;BME280;9537;45.594;9.294;2022-12-15T03:43:11;98689.19;;;0.34;87.46
18819;BME280;9537;45.594;9.294;2022-12-15T03:44:13;98687.28;;;0.36;88.00
18819;BME280;9537;45.594;9.294;2022-12-15T03:45:14;98696.44;;;0.40;87.62
18819;BME280;9537;45.594;9.294;2022-12-15T03:46:17;98699.88;;;0.40;87.27
18819;BME280;9537;45.594;9.294;2022-12-15T03:47:18;98707.53;;;0.42;87.08
18819;BME280;9537;45.594;9.294;2022-12-15T03:48:21;98718.06;;;0.40;87.35
18819;BME280;9537;45.594;9.294;2022-12-15T03:49:23;98711.09;;;0.41;87.64
18819;BME280;9537;45.594;9.294;2022-12-15T03:50:27;98709.31;;;0.41;87.36
18819;BME280;9537;45.594;9.294;2022-12-15T03:51:28;98708.34;;;0.42;87.74
18819;BME280;9537;45.594;9.294;2022-12-15T03:52:31;98711.63;;;0.44;87.47
18819;BME280;9537;45.594;9.294;2022-12-15T03:53:32;98710.69;;;0.45;87.94
18819;BME280;9537;45.594;9.294;2022-12-15T03:54:33;98699.34;;;0.47;87.38
18819;BME280;9537;45.594;9.294;2022-12-15T03:55:35;98706.44;;;0.44;87.61
18819;BME280;9537;45.594;9.294;2022-12-15T03:56:37;98706.44;;;0.44;87.99
18819;BME280;9537;45.594;9.294;2022-12-15T03:57:38;98705.47;;;0.45;88.16
18819;BME280;9537;45.594;9.294;2022-12-15T03:58:40;98705.38;;;0.47;87.94
18819;BME280;9537;45.594;9.294;2022-12-15T03:59:41;98693.19;;;0.48;87.55
18819;BME280;9537;45.594;9.294;2022-12-15T04:00:43;98698.28;;;0.49;87.85
18819;BME280;9537;45.594;9.294;2022-12-15T04:01:45;98701.69;;;0.50;87.72
18819;BME280;9537;45.594;9.294;2022-12-15T04:02:49;98707.44;;;0.53;88.32
18819;BME280;9537;45.594;9.294;2022-12-15T04:03:51;98700.44;;;0.54;87.91
18819;BME280;9537;45.594;9.294;2022-12-15T04:04:53;98694.31;;;0.55;87.76
18819;BME280;9537;45.594;9.294;2022-12-15T04:05:55;98699.38;;;0.56;88.28
18819;BME280;9537;45.594;9.294;2022-12-15T04:06:56;98696.66;;;0.58;88.33
18819;BME280;9537;45.594;9.294;2022-12-15T04:07:58;98701.16;;;0.56;88.49
18819;BME280;9537;45.594;9.294;2022-12-15T04:09:02;98694.06;;;0.58;88.63
18819;BME280;9537;45.594;9.294;2022-12-15T04:10:03;98687.88;;;0.59;88.54
18819;BME280;9537;45.594;9.294;2022-12-15T04:11:05;98689.66;;;0.58;88.38
18819;BME280;9537;45.594;9.294;2022-12-15T04:12:09;98689.53;;;0.60;88.54
18819;BME280;9537;45.594;9.294;2022-12-15T04:13:11;98691.19;;;0.61;88.54
18819;BME280;9537;45.594;9.294;2022-12-15T04:14:12;98690.91;;;0.64;88.49
18819;BME280;9537;45.594;9.294;2022-12-15T04:15:14;98699.41;;;0.66;89.10
18819;BME280;9537;45.594;9.294;2022-12-15T04:16:15;98701.16;;;0.65;89.00
18819;BME280;9537;45.594;9.294;2022-12-15T04:17:18;98688.16;;;0.65;89.33
18819;BME280;9537;45.594;9.294;2022-12-15T04:18:19;98682.16;;;0.65;89.69
18819;BME280;9537;45.594;9.294;2022-12-15T04:19:23;98687.91;;;0.68;89.38
18819;BME280;9537;45.594;9.294;2022-12-15T04:20:42;98680.94;;;0.69;89.30
18819;BME280;9537;45.594;9.294;2022-12-15T04:21:43;98683.41;;;0.71;89.50
18819;BME280;9537;45.594;9.294;2022-12-15T04:22:47;98685.88;;;0.72;90.20
18819;BME280;9537;45.594;9.294;2022-12-15T04:23:51;98693.53;;;0.74;89.81
18819;BME280;9537;45.594;9.294;2022-12-15T04:25:12;98690.53;;;0.78;90.53
18819;BME280;9537;45.594;9.294;2022-12-15T04:26:31;98692.06;;;0.81;90.56
18819;BME280;9537;45.594;9.294;2022-12-15T04:27:51;98687.66;;;0.81;90.07
18819;BME280;9537;45.594;9.294;2022-12-15T04:29:11;98682.59;;;0.80;90.84
18819;BME280;9537;45.594;9.294;2022-12-15T04:30:30;98686.84;;;0.81;90.02
18819;BME280;9537;45.594;9.294;2022-12-15T04:31:50;98699.84;;;0.81;90.43
18819;BME280;9537;45.594;9.294;2022-12-15T04:33:09;98698.19;;;0.80;90.77
18819;BME280;9537;45.594;9.294;2022-12-15T04:34:30;98698.72;;;0.74;90.43
18819;BME280;9537;45.594;9.294;2022-12-15T04:35:50;98692.00;;;0.71;91.21
18819;BME280;9537;45.594;9.294;2022-12-15T04:37:11;98692.72;;;0.73;90.58
18819;BME280;9537;45.594;9.294;2022-12-15T04:38:32;98693.78;;;0.71;90.09
18819;BME280;9537;45.594;9.294;2022-12-15T04:39:52;98698.88;;;0.72;90.61
18819;BME280;9537;45.594;9.294;2022-12-15T04:41:14;98697.22;;;0.71;90.14
18819;BME280;9537;45.594;9.294;2022-12-15T04:42:35;98702.41;;;0.71;90.12
18819;BME280;9537;45.594;9.294;2022-12-15T04:43:55;98691.19;;;0.71;90.28
18819;BME280;9537;45.594;9.294;2022-12-15T04:45:16;98693.69;;;0.72;90.36
18819;BME280;9537;45.594;9.294;2022-12-15T04:46:37;98681.34;;;0.74;90.16
18819;BME280;9537;45.594;9.294;2022-12-15T04:47:56;98685.59;;;0.75;90.17
18819;BME280;9537;45.594;9.294;2022-12-15T04:49:15;98679.72;;;0.73;89.85
18819;BME280;9537;45.594;9.294;2022-12-15T04:50:36;98690.13;;;0.73;90.71
18819;BME280;9537;45.594;9.294;2022-12-15T04:51:56;98691.75;;;0.74;91.09
18819;BME280;9537;45.594;9.294;2022-12-15T04:53:17;98684.63;;;0.76;90.85
18819;BME280;9537;45.594;9.294;2022-12-15T04:54:37;98685.34;;;0.78;90.67
18819;BME280;9537;45.594;9.294;2022-12-15T04:55:56;98683.00;;;0.75;91.27
18819;BME280;9537;45.594;9.294;2022-12-15T04:57:16;98690.53;;;0.78;91.58
18819;BME280;9537;45.594;9.294;2022-12-15T04:58:35;98687.94;;;0.78;91.43
18819;BME280;9537;45.594;9.294;2022-12-15T04:59:54;98685.19;;;0.80;91.81
18819;BME280;9537;45.594;9.294;2022-12-15T05:01:14;98701.47;;;0.82;91.40
18819;BME280;9537;45.594;9.294;2022-12-15T05:02:34;98699.56;;;0.84;91.77
18819;BME280;9537;45.594;9.294;2022-12-15T05:03:53;98696.97;;;0.84;91.59
18819;BME280;9537;45.594;9.294;2022-12-15T05:05:12;98692.59;;;0.84;91.41
18819;BME280;9537;45.594;9.294;2022-12-15T05:06:33;98693.28;;;0.86;91.22
18819;BME280;9537;45.594;9.294;2022-12-15T05:07:56;98681.94;;;0.87;91.25
18819;BME280;9537;45.594;9.294;2022-12-15T05:09:15;98682.75;;;0.88;91.12
18819;BME280;9537;45.594;9.294;2022-12-15T05:10:35;98682.34;;;0.93;91.78
18819;BME280;9537;45.594;9.294;2022-12-15T05:11:54;98687.28;;;0.96;91.15
18819;BME280;9537;45.594;9.294;2022-12-15T05:13:13;98699.31;;;0.97;91.60
18819;BME280;9537;45.594;9.294;2022-12-15T05:14:33;98688.78;;;0.98;91.94
18819;BME280;9537;45.594;9.294;2022-12-15T05:15:52;98693.03;;;0.99;91.57
18819;BME280;9537;45.594;9.294;2022-12-15T05:17:11;98693.16;;;0.98;91.78
18819;BME280;9537;45.594;9.294;2022-12-15T05:18:31;98694.00;;;0.98;91.82
18819;BME280;9537;45.594;9.294;2022-12-15T05:19:50;98689.59;;;0.99;91.45
18819;BME280;9537;45.594;9.294;2022-12-15T05:21:09;98688.78;;;0.98;91.31
18819;BME280;9537;45.594;9.294;2022-12-15T05:22:30;98685.09;;;1.01;90.89
18819;BME280;9537;45.594;9.294;2022-12-15T05:23:49;98684.28;;;1.00;90.97
18819;BME280;9537;45.594;9.294;2022-12-15T05:25:09;98689.59;;;0.99;91.43
18819;BME280;9537;45.594;9.294;2022-12-15T05:26:28;98688.25;;;0.95;91.28
18819;BME280;9537;45.594;9.294;2022-12-15T05:27:48;98690.69;;;0.96;91.29
18819;BME280;9537;45.594;9.294;2022-12-15T05:29:07;98697.28;;;1.00;92.24
18819;BME280;9537;45.594;9.294;2022-12-15T05:30:27;98692.22;;;0.99;92.01
18819;BME280;9537;45.594;9.294;2022-12-15T05:31:46;98690.28;;;1.01;91.94
18819;BME280;9537;45.594;9.294;2022-12-15T05:32:51;98688.50;;;1.01;91.46
18819;BME280;9537;45.594;9.294;2022-12-15T05:33:52;98698.75;;;1.03;92.08
18819;BME280;9537;45.594;9.294;2022-12-15T05:34:55;98694.41;;;1.03;91.81
18819;BME280;9537;45.594;9.294;2022-12-15T05:35:56;98699.63;;;1.03;92.30
18819;BME280;9537;45.594;9.294;2022-12-15T05:37:00;98697.81;;;1.04;91.91
18819;BME280;9537;45.594;9.294;2022-12-15T05:38:03;98697.00;;;1.03;92.26
18819;BME280;9537;45.594;9.294;2022-12-15T05:39:05;98703.84;;;1.04;92.61
18819;BME280;9537;45.594;9.294;2022-12-15T05:40:08;98705.91;;;1.01;92.38
18819;BME280;9537;45.594;9.294;2022-12-15T05:41:10;98705.09;;;1.00;92.70
18819;BME280;9537;45.594;9.294;2022-12-15T05:42:11;98709.16;;;1.03;92.12
18819;BME280;9537;45.594;9.294;2022-12-15T05:43:13;98715.06;;;1.05;92.30
18819;BME280;9537;45.594;9.294;2022-12-15T05:44:14;98715.06;;;1.05;92.65
18819;BME280;9537;45.594;9.294;2022-12-15T05:45:17;98721.22;;;1.04;92.89
18819;BME280;9537;45.594;9.294;2022-12-15T05:46:18;98729.69;;;1.06;92.51
18819;BME280;9537;45.594;9.294;2022-12-15T05:47:20;98726.28;;;1.05;93.27
18819;BME280;9537;45.594;9.294;2022-12-15T05:48:21;98718.47;;;1.05;92.51
18819;BME280;9537;45.594;9.294;2022-12-15T05:49:23;98723.00;;;1.03;93.11
18819;BME280;9537;45.594;9.294;2022-12-15T05:50:24;98727.25;;;1.04;93.30
18819;BME280;9537;45.594;9.294;2022-12-15T05:51:26;98715.06;;;1.05;93.47
18819;BME280;9537;45.594;9.294;2022-12-15T05:52:27;98724.66;;;1.04;93.24
18819;BME280;9537;45.594;9.294;2022-12-15T05:53:31;98722.16;;;1.03;93.14
18819;BME280;9537;45.594;9.294;2022-12-15T05:54:32;98725.47;;;1.05;92.75
18819;BME280;9537;45.594;9.294;2022-12-15T05:55:34;98720.25;;;1.05;93.17
18819;BME280;9537;45.594;9.294;2022-12-15T05:56:35;98721.91;;;1.06;93.29
18819;BME280;9537;45.594;9.294;2022-12-15T05:57:39;98717.28;;;1.09;93.36
18819;BME280;9537;45.594;9.294;2022-12-15T05:58:40;98718.78;;;1.12;93.49
18819;BME280;9537;45.594;9.294;2022-12-15T05:59:42;98715.22;;;1.13;92.97
18819;BME280;9537;45.594;9.294;2022-12-15T06:00:43;98719.31;;;1.16;93.00
18819;BME280;9537;45.594;9.294;2022-12-15T06:01:45;98720.28;;;1.15;92.93
18819;BME280;9537;45.594;9.294;2022-12-15T06:02:48;98723.81;;;1.13;93.10
18819;BME280;9537;45.594;9.294;2022-12-15T06:03:49;98725.88;;;1.10;93.65
18819;BME280;9537;45.594;9.294;2022-12-15T06:04:51;98723.00;;;1.13;93.80
18819;BME280;9537;45.594;9.294;2022-12-15T06:05:52;98726.59;;;1.12;94.03
18819;BME280;9537;45.594;9.294;2022-12-15T06:06:54;98727.41;;;1.12;93.40
18819;BME280;9537;45.594;9.294;2022-12-15T06:07:55;98732.44;;;1.14;93.97
18819;BME280;9537;45.594;9.294;2022-12-15T06:08:59;98734.78;;;1.17;93.63
18819;BME280;9537;45.594;9.294;2022-12-15T06:10:00;98732.31;;;1.16;93.71
18819;BME280;9537;45.594;9.294;2022-12-15T06:11:02;98733.16;;;1.16;94.04
18819;BME280;9537;45.594;9.294;2022-12-15T06:12:04;98739.03;;;1.18;93.54
18819;BME280;9537;45.594;9.294;2022-12-15T06:13:06;98731.25;;;1.18;93.63
18819;BME280;9537;45.594;9.294;2022-12-15T06:14:08;98730.41;;;1.18;93.67
18819;BME280;9537;45.594;9.294;2022-12-15T06:15:10;98739.84;;;1.19;93.40
18819;BME280;9537;45.594;9.294;2022-12-15T06:16:13;98748.47;;;1.19;93.90
18819;BME280;9537;45.594;9.294;2022-12-15T06:17:15;98752.03;;;1.18;93.18
18819;BME280;9537;45.594;9.294;2022-12-15T06:18:16;98750.09;;;1.20;93.50
18819;BME280;9537;45.594;9.294;2022-12-15T06:19:19;98756.97;;;1.21;93.71